createdAt,value
2019-02-02T00:03:31.000Z,35.5
2019-02-02T00:13:31.000Z,35.3
2019-02-02T00:23:31.000Z,35.6
2019-02-02T00:33:31.000Z,35.6
2019-02-02T00:43:31.000Z,39.2
2019-02-02T00:53:31.000Z,35.9
2019-02-02T01:03:31.000Z,35.6
2019-02-02T01:13:31.000Z,35.6
2019-02-02T01:23:31.000Z,35.8
2019-02-02T01:33:31.000Z,35.4
2019-02-02T01:43:31.000Z,34.8
2019-02-02T01:53:31.000Z,35.1
2019-02-02T02:03:31.000Z,35
2019-02-02T02:13:31.000Z,35.5
2019-02-02T02:23:31.000Z,35.5
2019-02-02T02:33:31.000Z,35.6
2019-02-02T02:43:31.000Z,35.7
2019-02-02T02:53:31.000Z,35.9
2019-02-02T03:03:31.000Z,36
2019-02-02T03:13:31.000Z,36.2
2019-02-02T03:23:31.000Z,36.3
2019-02-02T03:33:31.000Z,36.1
2019-02-02T03:43:31.000Z,37.1
2019-02-02T03:53:31.000Z,36.3
2019-02-02T04:03:31.000Z,36.4
2019-02-02T04:13:31.000Z,40.6
2019-02-02T04:23:31.000Z,42.9
2019-02-02T04:33:31.000Z,44.8
2019-02-02T04:43:31.000Z,44.7
2019-02-02T04:53:31.000Z,44.4
2019-02-02T05:03:31.000Z,44.3
2019-02-02T05:13:31.000Z,44.1
2019-02-02T05:23:31.000Z,44
2019-02-02T05:33:31.000Z,43.9
2019-02-02T05:43:31.000Z,43.8
2019-02-02T05:53:31.000Z,43.7
2019-02-02T06:03:31.000Z,43.6
2019-02-02T06:13:31.000Z,43.5
2019-02-02T06:23:31.000Z,43.4
2019-02-02T06:33:31.000Z,43.4
2019-02-02T06:43:32.000Z,43.3
2019-02-02T06:53:31.000Z,43.2
2019-02-02T07:03:32.000Z,43.1
2019-02-02T07:13:32.000Z,43.1
2019-02-02T07:23:32.000Z,43.1
2019-02-02T07:33:32.000Z,43.1
2019-02-02T07:43:34.000Z,43.1
2019-02-02T07:53:32.000Z,42.9
2019-02-02T08:03:32.000Z,42.9
2019-02-02T08:13:32.000Z,42.9
2019-02-02T08:23:32.000Z,42.8
2019-02-02T08:33:32.000Z,42.7
2019-02-02T08:43:32.000Z,42.8
2019-02-02T08:53:32.000Z,42.8
2019-02-02T09:03:32.000Z,42.7
2019-02-02T09:13:32.000Z,42.3
2019-02-02T09:23:32.000Z,42.4
2019-02-02T09:33:32.000Z,42.5
2019-02-02T09:43:32.000Z,42.6
2019-02-02T09:53:32.000Z,42.6
2019-02-02T10:03:32.000Z,42.7
2019-02-02T10:13:32.000Z,42.7
2019-02-02T10:23:33.000Z,42.6
2019-02-02T10:33:32.000Z,42.4
2019-02-02T10:43:32.000Z,41.9
2019-02-02T10:53:32.000Z,40.8
2019-02-02T11:03:32.000Z,41.4
2019-02-02T11:13:32.000Z,40.7
2019-02-02T11:23:32.000Z,41.7
2019-02-02T11:33:32.000Z,42
2019-02-02T11:43:32.000Z,42.2
2019-02-02T11:53:32.000Z,42.2
2019-02-02T12:03:32.000Z,42.3
2019-02-02T12:13:33.000Z,42.4
2019-02-02T12:23:32.000Z,42.4
2019-02-02T12:33:32.000Z,42.2
2019-02-02T12:43:32.000Z,42
2019-02-02T12:53:32.000Z,42.2
2019-02-02T13:03:32.000Z,42.1
2019-02-02T13:13:32.000Z,42.3
2019-02-02T13:23:33.000Z,42.4
2019-02-02T13:33:32.000Z,42.8
2019-02-02T13:43:33.000Z,42.4
2019-02-02T13:53:33.000Z,42
2019-02-02T14:03:33.000Z,43.1
2019-02-02T14:13:33.000Z,45.1
2019-02-02T14:23:33.000Z,45.1
2019-02-02T14:33:33.000Z,45.8
2019-02-02T14:43:33.000Z,44.8
2019-02-02T14:53:33.000Z,46
2019-02-02T15:03:33.000Z,46.5
2019-02-02T15:13:33.000Z,46.5
2019-02-02T15:23:33.000Z,46.2
2019-02-02T15:33:33.000Z,46.2
2019-02-02T15:43:33.000Z,46.4
2019-02-02T15:53:33.000Z,46.5
2019-02-02T16:03:33.000Z,46.5
2019-02-02T16:13:33.000Z,46.5
2019-02-02T16:23:33.000Z,46.6
2019-02-02T16:33:33.000Z,46.5
2019-02-02T16:43:33.000Z,45.9
2019-02-02T16:53:33.000Z,46.8
2019-02-02T17:03:33.000Z,48
2019-02-02T17:13:33.000Z,49
2019-02-02T17:23:34.000Z,49.5
2019-02-02T17:33:33.000Z,49.5
2019-02-02T17:43:33.000Z,49.9
2019-02-02T17:53:33.000Z,50.2
2019-02-02T18:03:33.000Z,50.5
2019-02-02T18:13:33.000Z,50.9
2019-02-02T18:23:33.000Z,50.6
2019-02-02T18:33:33.000Z,50.7
2019-02-02T18:43:33.000Z,50.8
2019-02-02T18:53:33.000Z,52.2
2019-02-02T19:03:33.000Z,52.4
2019-02-02T19:13:33.000Z,52.5
2019-02-02T19:23:33.000Z,52.7
2019-02-02T19:33:33.000Z,52.6
2019-02-02T19:43:35.000Z,52.6
2019-02-02T19:53:34.000Z,52.5
2019-02-02T20:03:33.000Z,52.5
2019-02-02T20:13:33.000Z,52.4
2019-02-02T20:23:33.000Z,52.3
2019-02-02T20:33:35.000Z,52.2
2019-02-02T20:43:34.000Z,52.2
2019-02-02T20:53:34.000Z,52
2019-02-02T21:03:36.000Z,51.9
2019-02-02T21:13:34.000Z,51.8
2019-02-02T21:23:34.000Z,51.6
2019-02-02T21:33:34.000Z,51.6
2019-02-02T21:43:34.000Z,51.4
2019-02-02T21:53:37.000Z,51.3
2019-02-02T22:03:34.000Z,51.3
2019-02-02T22:13:34.000Z,51.2
2019-02-02T22:23:34.000Z,51.2
2019-02-02T22:33:34.000Z,51
2019-02-02T22:43:34.000Z,51
2019-02-02T22:53:35.000Z,50.8
2019-02-02T23:03:35.000Z,50.8
2019-02-02T23:13:34.000Z,50.6
2019-02-02T23:23:34.000Z,50.4
2019-02-02T23:33:34.000Z,50.4
2019-02-02T23:43:34.000Z,50.3
2019-02-02T23:53:34.000Z,50.3
